Terminal Aerodrome Forecast
Issued by NWS

Home | Current Version | Previous Version | Text Only | Print | Product List | Glossary On
Versions: 1 2 3 4 5 6 7 8 9 10 11 12 13 14
752
FTUS45 KRIW 262338
TAFRKS
TAF
KRKS 262338Z 2700/2724 28015G23KT P6SM VCSH SCT040 BKN070
     FM270200 29012G18KT P6SM SCT080
     FM270400 26009KT P6SM SCT090
     FM271000 34007KT P6SM VCSH BKN030
     FM271500 03009KT P6SM BKN080
     FM271900 35010G18KT P6SM SCT080=

USA.gov is the U.S. government's official web portal to all federal, state and local government web resources and services.